OLJ weather

North West Santo Airport
Olpoi, Sanma, Vanuatu

Public forecast

Using degrees Celsius for public forecast. Weather courtesy of forecast.io.

Closest aviation weather report (METAR) to North West Santo Airport

Closest report is Santo Pekoa International Airport, 53.6 nm (99.2 km) SE. Retrieved 2019/10/17 12:00 UTC (41 minutes ago):

NVSS 171200Z 15006KT 9999 BKN018 25/22 Q1015 RMK VCSH

Closest aviation forecast (TAF) to North West Santo Airport

Closest forecast is Santo Pekoa International Airport, 53.6 nm (99.2 km) SE. Retrieved 2019/10/17 12:09 UTC (32 minutes ago):

TAF NVSS 171000Z 1712/1812 13512KT 9999 SCT020 BKN038 PROB30 INTER 1712/1718 9000 -SHRA BKN018 BECMG 1721/1723 13014KT